Time;durP1;ratioP1;P1;durP2;ratioP2;P2;SDS_P1;SDS_P2;PMS_P1;PMS_P2;Temp;Humidity;BMP_temperature;BMP_pressure;BME280_temperature;BME280_humidity;BME280_pressure;Samples;Min_cycle;Max_cycle;Signal;HPM_P1;HPM_P2
2023/02/04 00:01:20;;;;;;;46.25;7.00;;;3.40;99.90;;;;;;5069754;28;20067;-58
2023/02/04 00:03:46;;;;;;;39.85;4.97;;;3.40;99.90;;;;;;5079656;28;20041;-55
2023/02/04 00:06:12;;;;;;;32.35;5.45;;;3.40;99.90;;;;;;5071964;28;20083;-58
2023/02/04 00:08:37;;;;;;;66.68;7.22;;;3.30;99.90;;;;;;5074155;28;20513;-55
2023/02/04 00:11:03;;;;;;;42.35;5.30;;;3.30;99.90;;;;;;5076383;28;20025;-57
2023/02/04 00:13:29;;;;;;;38.60;5.88;;;3.30;99.90;;;;;;5077063;28;20082;-57
2023/02/04 00:15:54;;;;;;;41.08;5.18;;;3.30;99.90;;;;;;5073310;28;20528;-57
2023/02/04 00:18:20;;;;;;;49.28;5.35;;;3.30;99.90;;;;;;5063250;28;20048;-57
2023/02/04 00:20:45;;;;;;;36.15;6.47;;;3.40;99.90;;;;;;5062422;28;20423;-58
2023/02/04 00:23:11;;;;;;;47.35;6.03;;;3.50;99.90;;;;;;5064339;28;20039;-55
2023/02/04 00:25:37;;;;;;;40.67;5.70;;;3.50;99.90;;;;;;5059847;28;20045;-56
2023/02/04 00:28:03;;;;;;;43.10;5.40;;;3.50;99.90;;;;;;5062119;28;20040;-58
2023/02/04 00:30:29;;;;;;;39.13;6.53;;;3.50;99.90;;;;;;5063285;28;20041;-57
2023/02/04 00:32:55;;;;;;;33.10;6.20;;;3.50;99.90;;;;;;5063329;28;20044;-58
2023/02/04 00:35:22;;;;;;;35.78;5.70;;;3.50;99.90;;;;;;5062580;28;20048;-61
2023/02/04 00:37:47;;;;;;;42.47;4.93;;;3.50;99.90;;;;;;5062751;28;20579;-56
2023/02/04 00:40:13;;;;;;;32.55;4.95;;;3.60;99.90;;;;;;5063069;28;20123;-57
2023/02/04 00:42:39;;;;;;;46.65;7.65;;;3.50;99.90;;;;;;5063995;28;20075;-59
2023/02/04 00:45:05;;;;;;;42.10;5.63;;;3.60;99.90;;;;;;5066032;28;20098;-53
2023/02/04 00:47:30;;;;;;;49.17;6.30;;;3.60;99.90;;;;;;5061014;28;20040;-59
2023/02/04 00:49:56;;;;;;;30.92;4.93;;;3.60;99.90;;;;;;5061935;28;20036;-57
2023/02/04 00:52:22;;;;;;;37.10;5.32;;;3.60;99.90;;;;;;5060989;28;20037;-58
2023/02/04 00:54:47;;;;;;;40.55;6.28;;;3.60;99.90;;;;;;5061189;28;20036;-58
2023/02/04 00:57:13;;;;;;;26.50;4.68;;;3.60;99.90;;;;;;5055239;28;20036;-56
2023/02/04 00:59:38;;;;;;;36.00;5.30;;;3.60;99.90;;;;;;5060477;28;20040;-59
2023/02/04 01:02:04;;;;;;;50.33;5.45;;;3.60;99.90;;;;;;5060380;28;20044;-57
2023/02/04 01:04:30;;;;;;;44.17;6.88;;;3.60;99.90;;;;;;5060501;28;20047;-56
2023/02/04 01:06:55;;;;;;;40.28;5.63;;;3.70;99.90;;;;;;5056371;28;20132;-57
2023/02/04 01:09:21;;;;;;;41.88;6.50;;;3.70;99.90;;;;;;5061686;28;20070;-58
2023/02/04 01:11:46;;;;;;;41.15;5.85;;;3.60;99.90;;;;;;5058173;28;20036;-57
2023/02/04 01:14:12;;;;;;;35.95;7.07;;;3.60;99.90;;;;;;5061646;28;20032;-52
2023/02/04 01:16:38;;;;;;;33.45;5.60;;;3.60;99.90;;;;;;5060173;28;20036;-58
2023/02/04 01:19:03;;;;;;;36.95;5.30;;;3.60;99.90;;;;;;5062646;28;20093;-58
2023/02/04 01:21:29;;;;;;;37.45;5.05;;;3.60;99.90;;;;;;5063855;28;20040;-58
2023/02/04 01:23:54;;;;;;;44.70;6.38;;;3.70;99.90;;;;;;5064819;28;20032;-58
2023/02/04 01:26:21;;;;;;;38.08;5.32;;;3.60;99.90;;;;;;5053899;28;20044;-56
2023/02/04 01:28:47;;;;;;;34.33;5.70;;;3.60;99.90;;;;;;5060358;28;20036;-56
2023/02/04 01:31:13;;;;;;;36.53;5.47;;;3.70;99.90;;;;;;5055259;28;20404;-57
2023/02/04 01:33:39;;;;;;;41.00;6.75;;;3.60;99.90;;;;;;5066121;28;20392;-56
2023/02/04 01:36:05;;;;;;;37.85;5.20;;;3.60;99.90;;;;;;5056475;28;20497;-56
2023/02/04 01:38:30;;;;;;;39.15;6.32;;;3.60;99.90;;;;;;5059198;28;20063;-55
2023/02/04 01:40:57;;;;;;;38.95;5.57;;;3.70;99.90;;;;;;5059232;28;20029;-58
2023/02/04 01:43:23;;;;;;;40.80;4.63;;;3.70;99.90;;;;;;5061691;28;20044;-56
2023/02/04 01:45:50;;;;;;;47.53;5.40;;;3.70;99.90;;;;;;5059744;28;20045;-57
2023/02/04 01:48:19;;;;;;;32.33;5.40;;;3.70;99.90;;;;;;5063929;28;20036;-58
2023/02/04 01:50:50;;;;;;;39.53;4.88;;;3.70;99.90;;;;;;5060600;28;20037;-58
2023/02/04 01:53:23;;;;;;;33.65;5.43;;;3.70;99.90;;;;;;5056376;28;20047;-56
2023/02/04 01:55:49;;;;;;;33.00;5.18;;;3.70;99.90;;;;;;5053987;28;20040;-56
2023/02/04 01:58:15;;;;;;;41.85;5.28;;;3.70;99.90;;;;;;5060532;28;20133;-58
2023/02/04 02:00:42;;;;;;;26.88;4.22;;;3.70;99.90;;;;;;5059521;28;20041;-59
2023/02/04 02:03:09;;;;;;;35.72;5.10;;;3.70;99.90;;;;;;5058318;28;20040;-57
2023/02/04 02:05:40;;;;;;;31.40;5.07;;;3.70;99.90;;;;;;5058996;28;20052;-53
2023/02/04 02:08:07;;;;;;;41.50;6.13;;;3.70;99.90;;;;;;5059041;28;20041;-53
2023/02/04 02:10:34;;;;;;;38.08;5.53;;;3.60;99.90;;;;;;5062481;28;20029;-58
2023/02/04 02:13:00;;;;;;;31.55;4.82;;;3.60;99.90;;;;;;5062855;28;20051;-58
2023/02/04 02:15:26;;;;;;;35.83;6.13;;;3.60;99.90;;;;;;5059184;28;20045;-56
2023/02/04 02:17:53;;;;;;;36.38;4.72;;;3.60;99.90;;;;;;5057897;28;20056;-56
2023/02/04 02:20:21;;;;;;;32.80;4.57;;;3.60;99.90;;;;;;5060619;28;20037;-57
2023/02/04 02:23:04;;;;;;;37.45;4.90;;;3.70;99.90;;;;;;5060957;28;20024;-53
2023/02/04 02:25:29;;;;;;;41.70;5.95;;;3.70;99.90;;;;;;5056941;28;20273;-54
2023/02/04 02:27:57;;;;;;;31.15;4.25;;;3.70;99.90;;;;;;5057740;28;20040;-59
2023/02/04 02:30:23;;;;;;;30.15;4.65;;;3.80;99.90;;;;;;5058146;28;20075;-55
2023/02/04 02:32:51;;;;;;;26.83;4.03;;;3.70;99.90;;;;;;5061115;28;20036;-56
2023/02/04 02:35:17;;;;;;;29.48;4.63;;;3.70;99.90;;;;;;5060370;28;20075;-58
2023/02/04 02:37:42;;;;;;;27.70;4.47;;;3.70;99.90;;;;;;5057512;28;20106;-58
2023/02/04 02:40:09;;;;;;;22.10;3.83;;;3.70;99.90;;;;;;5061965;28;20036;-57
2023/02/04 02:42:35;;;;;;;29.13;4.53;;;3.70;99.90;;;;;;5059151;28;20092;-57
2023/02/04 02:45:07;;;;;;;28.88;3.33;;;3.60;99.90;;;;;;5062610;28;20040;-58
2023/02/04 02:47:33;;;;;;;29.27;4.35;;;3.60;99.90;;;;;;5058289;28;20085;-56
2023/02/04 02:49:58;;;;;;;35.50;5.72;;;3.60;99.90;;;;;;5062245;28;20044;-57
2023/02/04 02:52:24;;;;;;;32.45;3.72;;;3.60;99.90;;;;;;5060481;28;20776;-55
2023/02/04 02:54:50;;;;;;;19.38;3.67;;;3.60;99.90;;;;;;5062505;28;20848;-57
2023/02/04 02:57:18;;;;;;;24.13;3.67;;;3.60;99.90;;;;;;5057136;28;20047;-54
2023/02/04 02:59:44;;;;;;;20.80;3.45;;;3.60;99.90;;;;;;5059315;28;20531;-57
2023/02/04 03:02:13;;;;;;;20.25;3.05;;;3.60;99.90;;;;;;5056990;28;20716;-57
2023/02/04 03:04:46;;;;;;;26.90;3.00;;;3.60;99.90;;;;;;5061933;28;20044;-57
2023/02/04 03:07:13;;;;;;;23.92;3.63;;;3.60;99.90;;;;;;5055835;28;20048;-55
2023/02/04 03:09:39;;;;;;;27.38;4.03;;;3.60;99.90;;;;;;5061951;28;20072;-55
2023/02/04 03:12:05;;;;;;;16.83;2.72;;;3.50;99.90;;;;;;5060493;28;20086;-58
2023/02/04 03:14:32;;;;;;;19.88;4.03;;;3.60;99.90;;;;;;5061741;28;20111;-59
2023/02/04 03:16:59;;;;;;;17.15;2.45;;;3.50;99.90;;;;;;5057720;28;20044;-57
2023/02/04 03:19:25;;;;;;;17.35;3.17;;;3.50;99.90;;;;;;5059657;28;20098;-58
2023/02/04 03:21:52;;;;;;;21.23;3.47;;;3.50;99.90;;;;;;5059300;28;20054;-54
2023/02/04 03:24:18;;;;;;;24.92;3.30;;;3.50;99.90;;;;;;5062528;28;20127;-57
2023/02/04 03:26:43;;;;;;;21.83;3.55;;;3.60;99.90;;;;;;5059706;28;20123;-57
2023/02/04 03:29:09;;;;;;;22.05;3.13;;;3.60;99.90;;;;;;5058646;28;20065;-57
2023/02/04 03:31:36;;;;;;;23.42;3.67;;;3.50;99.90;;;;;;5057394;28;20036;-54
2023/02/04 03:34:02;;;;;;;29.52;3.58;;;3.50;99.90;;;;;;5061862;28;20123;-57
2023/02/04 03:36:28;;;;;;;37.13;4.45;;;3.60;99.90;;;;;;5056815;28;20115;-59
2023/02/04 03:38:53;;;;;;;18.25;2.55;;;3.50;99.90;;;;;;5060895;28;20081;-56
2023/02/04 03:41:19;;;;;;;21.80;3.40;;;3.40;99.90;;;;;;5056469;28;20086;-58
2023/02/04 03:43:44;;;;;;;27.00;3.17;;;3.50;99.90;;;;;;5061572;28;20064;-58
2023/02/04 03:46:10;;;;;;;31.80;3.05;;;3.40;99.90;;;;;;5057890;28;20040;-56
2023/02/04 03:48:36;;;;;;;17.90;2.08;;;3.50;99.90;;;;;;5060396;28;20045;-55
2023/02/04 03:51:01;;;;;;;21.67;2.42;;;3.50;99.90;;;;;;5058864;28;20048;-52
2023/02/04 03:53:27;;;;;;;31.90;2.95;;;3.50;99.90;;;;;;5062788;28;20036;-58
2023/02/04 03:55:53;;;;;;;14.57;2.60;;;3.50;99.90;;;;;;5061921;28;20063;-58
2023/02/04 03:58:18;;;;;;;17.95;2.55;;;3.40;99.90;;;;;;5046924;28;20059;-57
2023/02/04 04:00:44;;;;;;;18.25;3.63;;;3.40;99.90;;;;;;5043942;28;20095;-58
2023/02/04 04:03:10;;;;;;;18.83;2.83;;;3.50;99.90;;;;;;5050919;28;20040;-57
2023/02/04 04:05:35;;;;;;;11.00;2.30;;;3.50;99.90;;;;;;5061844;28;20041;-58
2023/02/04 04:08:01;;;;;;;14.60;2.03;;;3.50;99.90;;;;;;5065292;28;20309;-58
2023/02/04 04:10:28;;;;;;;18.25;2.97;;;3.50;99.90;;;;;;5063788;28;20045;-59
2023/02/04 04:12:54;;;;;;;22.02;2.83;;;3.50;99.90;;;;;;5060845;28;20064;-56
2023/02/04 04:15:20;;;;;;;21.35;2.45;;;3.50;99.90;;;;;;5061478;28;20071;-56
2023/02/04 04:17:45;;;;;;;18.70;3.33;;;3.60;99.90;;;;;;5056931;28;20484;-54
2023/02/04 04:20:11;;;;;;;17.27;2.70;;;3.60;99.90;;;;;;5064202;28;20044;-54
2023/02/04 04:22:37;;;;;;;19.95;2.72;;;3.60;99.90;;;;;;5057597;28;20561;-58
2023/02/04 04:25:03;;;;;;;16.50;2.88;;;3.60;99.90;;;;;;5058922;28;20028;-56
2023/02/04 04:27:29;;;;;;;17.73;3.30;;;3.60;99.90;;;;;;5057766;28;20044;-57
2023/02/04 04:29:55;;;;;;;23.42;3.90;;;3.60;99.90;;;;;;5062746;28;20060;-58
2023/02/04 04:32:21;;;;;;;25.75;4.32;;;3.60;99.90;;;;;;5064152;28;20059;-57
2023/02/04 04:34:46;;;;;;;26.20;3.67;;;3.60;99.90;;;;;;5064642;28;20041;-58
2023/02/04 04:37:12;;;;;;;23.63;2.90;;;3.60;99.90;;;;;;5058168;28;20487;-55
2023/02/04 04:39:38;;;;;;;28.20;3.33;;;3.60;99.90;;;;;;5061424;28;20039;-57
2023/02/04 04:42:03;;;;;;;21.00;3.65;;;3.60;99.90;;;;;;5060582;28;20427;-56
2023/02/04 04:44:29;;;;;;;36.00;3.83;;;3.70;99.90;;;;;;5063863;28;20744;-58
2023/02/04 04:46:56;;;;;;;21.58;3.60;;;3.60;99.90;;;;;;5057048;28;20028;-55
2023/02/04 04:49:22;;;;;;;41.30;5.30;;;3.60;99.90;;;;;;5059468;28;20047;-57
2023/02/04 04:51:47;;;;;;;35.90;5.72;;;3.60;99.90;;;;;;5059261;28;20036;-58
2023/02/04 04:54:13;;;;;;;31.63;3.88;;;3.60;99.90;;;;;;5059552;28;20054;-58
2023/02/04 04:56:38;;;;;;;28.02;4.88;;;3.70;99.90;;;;;;5057116;28;20040;-56
2023/02/04 04:59:04;;;;;;;33.72;5.40;;;3.70;99.90;;;;;;5062369;28;20407;-54
2023/02/04 05:01:29;;;;;;;42.47;4.75;;;3.70;99.90;;;;;;5061705;28;20040;-57
2023/02/04 05:03:55;;;;;;;40.38;5.65;;;3.70;99.90;;;;;;5059529;28;20122;-57
2023/02/04 05:06:24;;;;;;;35.58;5.25;;;3.70;99.90;;;;;;5063492;28;20055;-55
2023/02/04 05:08:50;;;;;;;41.03;5.70;;;3.60;99.90;;;;;;5062410;28;20035;-56
2023/02/04 05:11:16;;;;;;;35.22;5.97;;;3.60;99.90;;;;;;5060604;28;20058;-58
2023/02/04 05:13:42;;;;;;;38.33;6.60;;;3.70;99.90;;;;;;5060577;28;20484;-55
2023/02/04 05:16:10;;;;;;;34.72;4.93;;;3.70;99.90;;;;;;5058126;28;20082;-53
2023/02/04 05:18:36;;;;;;;29.23;4.78;;;3.70;99.90;;;;;;5062024;28;20043;-58
2023/02/04 05:21:02;;;;;;;34.47;5.05;;;3.70;99.90;;;;;;5061736;28;20408;-55
2023/02/04 05:23:28;;;;;;;24.27;4.53;;;3.80;99.90;;;;;;5063527;28;20041;-57
2023/02/04 05:25:53;;;;;;;37.42;5.43;;;3.80;99.90;;;;;;5059136;28;20531;-55
2023/02/04 05:28:19;;;;;;;34.72;4.80;;;3.70;99.90;;;;;;5062065;28;20043;-58
2023/02/04 05:30:44;;;;;;;36.97;6.15;;;3.80;99.90;;;;;;5058177;28;21759;-56
2023/02/04 05:33:10;;;;;;;34.58;4.88;;;3.70;99.90;;;;;;5065353;28;20724;-57
2023/02/04 05:35:35;;;;;;;35.53;5.40;;;3.70;99.90;;;;;;5060951;28;20044;-53
2023/02/04 05:38:01;;;;;;;30.55;4.45;;;3.70;99.90;;;;;;5056790;28;20589;-56
2023/02/04 05:40:26;;;;;;;27.45;4.38;;;3.70;99.90;;;;;;5061433;28;20036;-56
2023/02/04 05:42:52;;;;;;;35.80;5.45;;;3.70;99.90;;;;;;5063757;28;20044;-57
2023/02/04 05:45:18;;;;;;;27.08;4.55;;;3.70;99.90;;;;;;5060300;28;20464;-57
2023/02/04 05:47:43;;;;;;;28.15;4.38;;;3.70;99.90;;;;;;5059462;28;20049;-58
2023/02/04 05:50:09;;;;;;;29.20;5.38;;;3.80;99.90;;;;;;5062182;28;20041;-56
2023/02/04 05:52:35;;;;;;;33.45;5.57;;;3.80;99.90;;;;;;5063266;28;20082;-55
2023/02/04 05:55:01;;;;;;;41.38;5.88;;;3.80;99.90;;;;;;5062988;28;20037;-59
2023/02/04 05:57:26;;;;;;;36.17;6.05;;;3.80;99.90;;;;;;5057970;28;20135;-53
2023/02/04 05:59:52;;;;;;;49.63;7.85;;;3.70;99.90;;;;;;5064390;28;20610;-57
2023/02/04 06:02:18;;;;;;;36.22;5.32;;;3.70;99.90;;;;;;5055791;28;20440;-57
2023/02/04 06:04:44;;;;;;;35.83;5.38;;;3.70;99.90;;;;;;5062953;28;20244;-56
2023/02/04 06:07:09;;;;;;;34.75;6.70;;;3.70;99.90;;;;;;5055450;28;20788;-57
2023/02/04 06:09:35;;;;;;;44.10;6.40;;;3.70;99.90;;;;;;5057296;28;20070;-57
2023/02/04 06:12:00;;;;;;;40.42;7.80;;;3.60;99.90;;;;;;5056673;28;20044;-55
2023/02/04 06:14:26;;;;;;;35.50;5.78;;;3.60;99.90;;;;;;5062941;28;20115;-55
2023/02/04 06:16:52;;;;;;;32.80;5.63;;;3.60;99.90;;;;;;5054670;28;20057;-56
2023/02/04 06:19:17;;;;;;;27.02;5.13;;;3.60;99.90;;;;;;5056793;28;20051;-56
2023/02/04 06:21:43;;;;;;;36.70;6.18;;;3.60;99.90;;;;;;5059226;28;20034;-56
2023/02/04 06:24:09;;;;;;;26.38;4.63;;;3.60;99.90;;;;;;5063147;28;20423;-58
2023/02/04 06:26:34;;;;;;;35.67;6.28;;;3.60;99.90;;;;;;5056610;28;20053;-60
2023/02/04 06:29:00;;;;;;;35.03;4.40;;;3.60;99.90;;;;;;5060954;28;20040;-59
2023/02/04 06:31:26;;;;;;;29.83;5.25;;;3.60;99.90;;;;;;5058055;28;20436;-55
2023/02/04 06:33:51;;;;;;;30.15;6.15;;;3.60;99.90;;;;;;5059941;28;20131;-57
2023/02/04 06:36:17;;;;;;;35.40;5.70;;;3.60;99.90;;;;;;5058057;28;20063;-58
2023/02/04 06:38:43;;;;;;;36.65;5.25;;;3.50;99.90;;;;;;5062255;28;20443;-56
2023/02/04 06:41:08;;;;;;;42.40;5.35;;;3.50;99.90;;;;;;5058198;28;20028;-57
2023/02/04 06:43:34;;;;;;;35.75;6.28;;;3.60;99.90;;;;;;5060586;28;20121;-59
2023/02/04 06:45:59;;;;;;;32.92;5.53;;;3.60;99.90;;;;;;5056275;28;20075;-56
2023/02/04 06:48:25;;;;;;;27.05;4.45;;;3.60;99.90;;;;;;5057879;28;20375;-55
2023/02/04 06:50:51;;;;;;;33.67;6.93;;;3.70;99.90;;;;;;5058527;28;20123;-57
2023/02/04 06:53:16;;;;;;;33.47;5.35;;;3.70;99.90;;;;;;5063166;28;20044;-55
2023/02/04 06:55:42;;;;;;;36.35;5.53;;;3.70;99.90;;;;;;5053445;28;20040;-59
2023/02/04 06:58:08;;;;;;;41.95;6.72;;;3.70;99.90;;;;;;5055546;28;20127;-56
2023/02/04 07:00:33;;;;;;;28.83;5.28;;;3.70;99.90;;;;;;5055381;28;20041;-59
2023/02/04 07:02:59;;;;;;;44.67;6.70;;;3.70;99.90;;;;;;5059977;28;20036;-58
2023/02/04 07:05:25;;;;;;;29.35;4.85;;;3.70;99.90;;;;;;5058392;28;20040;-57
2023/02/04 07:07:50;;;;;;;40.40;5.65;;;3.70;99.90;;;;;;5058234;28;20044;-59
2023/02/04 07:10:17;;;;;;;46.35;4.90;;;3.70;99.90;;;;;;5058530;28;20032;-56
2023/02/04 07:12:42;;;;;;;30.40;7.05;;;3.60;99.90;;;;;;5061494;28;20036;-60
2023/02/04 07:15:09;;;;;;;25.48;4.25;;;3.70;99.90;;;;;;5059019;28;20090;-58
2023/02/04 07:17:34;;;;;;;39.53;6.03;;;3.70;99.90;;;;;;5058080;28;20045;-55
2023/02/04 07:20:00;;;;;;;32.85;4.78;;;3.70;99.90;;;;;;5061303;28;20137;-59
2023/02/04 07:22:26;;;;;;;37.42;5.93;;;3.70;99.90;;;;;;5058115;28;20040;-54
2023/02/04 07:24:52;;;;;;;33.10;5.82;;;3.70;99.90;;;;;;5060344;28;20040;-59
2023/02/04 07:27:17;;;;;;;28.83;5.13;;;3.70;99.90;;;;;;5060681;28;20067;-59
2023/02/04 07:29:43;;;;;;;40.63;4.93;;;3.70;99.90;;;;;;5064685;28;20039;-58
2023/02/04 07:32:08;;;;;;;28.02;4.93;;;3.70;99.90;;;;;;5062522;28;20044;-58
2023/02/04 07:34:34;;;;;;;33.38;6.30;;;3.70;99.90;;;;;;5064494;28;20024;-58
2023/02/04 07:37:00;;;;;;;36.15;6.45;;;3.80;99.90;;;;;;5057479;28;20085;-58
2023/02/04 07:39:25;;;;;;;40.63;6.75;;;3.70;99.90;;;;;;5060818;28;20442;-58
2023/02/04 07:41:51;;;;;;;33.58;6.38;;;3.70;99.90;;;;;;5061962;28;21526;-60
2023/02/04 07:44:17;;;;;;;36.42;6.30;;;3.60;99.90;;;;;;5060572;28;20094;-57
2023/02/04 07:46:42;;;;;;;36.17;7.03;;;3.60;99.90;;;;;;5061921;28;20603;-61
2023/02/04 07:49:08;;;;;;;34.38;6.20;;;3.60;99.90;;;;;;5064301;28;20036;-59
2023/02/04 07:51:34;;;;;;;37.75;6.03;;;3.60;99.90;;;;;;5063013;28;20060;-57
2023/02/04 07:54:00;;;;;;;32.70;5.93;;;3.70;99.90;;;;;;5065641;28;20068;-58
2023/02/04 07:56:25;;;;;;;35.40;6.13;;;3.60;99.90;;;;;;5062351;28;20040;-57
2023/02/04 07:58:51;;;;;;;37.80;5.20;;;3.70;99.90;;;;;;5063456;28;20048;-58
2023/02/04 08:01:17;;;;;;;33.47;5.60;;;3.70;99.90;;;;;;5057406;28;20037;-59
2023/02/04 08:03:43;;;;;;;30.88;5.40;;;3.70;99.90;;;;;;5059597;28;20048;-56
2023/02/04 08:06:09;;;;;;;31.38;4.85;;;3.80;99.90;;;;;;5060990;28;20047;-57
2023/02/04 08:08:34;;;;;;;38.90;6.78;;;3.70;99.90;;;;;;5063641;28;20067;-55
2023/02/04 08:11:00;;;;;;;46.28;8.70;;;3.80;99.90;;;;;;5057393;28;20068;-56
2023/02/04 08:13:25;;;;;;;27.88;8.00;;;3.70;99.90;;;;;;5064722;28;20029;-59
2023/02/04 08:15:51;;;;;;;41.05;6.50;;;3.70;99.90;;;;;;5059940;28;20557;-56
2023/02/04 08:18:17;;;;;;;30.60;6.72;;;3.80;99.90;;;;;;5064276;28;20044;-57
2023/02/04 08:20:42;;;;;;;29.35;6.07;;;3.80;99.90;;;;;;5059567;28;20550;-54
2023/02/04 08:23:08;;;;;;;20.52;4.93;;;3.90;99.90;;;;;;5065081;28;20040;-59
2023/02/04 08:25:34;;;;;;;22.73;5.82;;;3.90;99.90;;;;;;5060836;28;20032;-56
2023/02/04 08:27:59;;;;;;;38.70;6.18;;;4.00;99.90;;;;;;5061941;28;20040;-60
2023/02/04 08:30:25;;;;;;;30.42;5.65;;;4.00;99.90;;;;;;5059641;28;20036;-58
2023/02/04 08:32:51;;;;;;;28.75;5.97;;;4.10;99.90;;;;;;5059928;28;20443;-59
2023/02/04 08:35:17;;;;;;;30.80;4.97;;;4.10;99.90;;;;;;5059540;28;20033;-56
2023/02/04 08:37:42;;;;;;;30.10;4.72;;;4.10;99.90;;;;;;5060880;28;20156;-55
2023/02/04 08:40:08;;;;;;;29.77;8.00;;;4.10;99.90;;;;;;5060589;28;20909;-59
2023/02/04 08:42:34;;;;;;;37.72;6.05;;;4.20;99.90;;;;;;5060873;28;20110;-57
2023/02/04 08:45:00;;;;;;;32.35;6.97;;;4.10;99.90;;;;;;5061587;28;20040;-57
2023/02/04 08:47:26;;;;;;;44.95;9.70;;;4.00;99.90;;;;;;5055314;28;20508;-58
2023/02/04 08:49:51;;;;;;;32.50;7.20;;;4.00;99.90;;;;;;5064104;28;20057;-58
2023/02/04 08:52:18;;;;;;;34.67;8.77;;;4.10;99.90;;;;;;5061479;28;20040;-58
2023/02/04 08:54:44;;;;;;;33.25;8.10;;;4.10;99.90;;;;;;5061043;28;20542;-58
2023/02/04 08:57:09;;;;;;;48.00;7.10;;;4.00;99.90;;;;;;5062631;28;20044;-55
2023/02/04 08:59:35;;;;;;;38.47;7.55;;;3.90;99.90;;;;;;5056519;28;20036;-57
2023/02/04 09:02:01;;;;;;;34.30;8.15;;;4.00;99.90;;;;;;5057021;28;20559;-55
2023/02/04 09:04:27;;;;;;;36.17;6.40;;;4.00;99.90;;;;;;5063762;28;20730;-53
2023/02/04 09:06:53;;;;;;;39.80;8.43;;;4.10;99.90;;;;;;5059478;28;20045;-56
2023/02/04 09:09:19;;;;;;;33.42;7.45;;;4.10;99.90;;;;;;5062491;28;20040;-57
2023/02/04 09:11:45;;;;;;;37.83;7.38;;;4.10;99.90;;;;;;5060901;28;20045;-59
2023/02/04 09:14:11;;;;;;;20.40;5.25;;;4.00;99.90;;;;;;5062121;28;20062;-56
2023/02/04 09:16:37;;;;;;;45.88;8.00;;;4.20;99.90;;;;;;5061893;28;20507;-56
2023/02/04 09:19:03;;;;;;;33.47;6.10;;;4.30;99.90;;;;;;5063248;28;20033;-58
2023/02/04 09:21:29;;;;;;;33.60;5.43;;;4.30;99.90;;;;;;5061268;28;20048;-59
2023/02/04 09:23:56;;;;;;;38.28;6.50;;;4.30;99.90;;;;;;5061960;28;20036;-56
2023/02/04 09:26:22;;;;;;;30.83;5.78;;;4.30;99.90;;;;;;5059304;28;20048;-58
2023/02/04 09:28:48;;;;;;;33.63;5.78;;;4.20;99.90;;;;;;5060198;28;20097;-58
2023/02/04 09:31:14;;;;;;;30.90;5.70;;;4.30;99.90;;;;;;5055752;28;20036;-60
2023/02/04 09:33:40;;;;;;;34.47;5.13;;;4.40;99.90;;;;;;5065732;28;20445;-57
2023/02/04 09:36:06;;;;;;;29.27;5.13;;;4.40;99.90;;;;;;5059137;28;20044;-59
2023/02/04 09:38:32;;;;;;;24.75;5.43;;;4.30;99.90;;;;;;5061708;28;20500;-60
2023/02/04 09:41:06;;;;;;;30.55;4.88;;;4.20;99.90;;;;;;5057965;28;20039;-59
2023/02/04 09:43:37;;;;;;;21.13;4.13;;;4.20;99.90;;;;;;5056951;28;20036;-58
2023/02/04 09:46:03;;;;;;;28.55;4.28;;;4.20;99.90;;;;;;5059722;28;20772;-58
2023/02/04 09:48:29;;;;;;;23.98;3.90;;;4.20;99.90;;;;;;5059280;28;20037;-56
2023/02/04 09:51:04;;;;;;;25.00;4.47;;;4.30;99.90;;;;;;5057275;28;20036;-57
2023/02/04 09:53:31;;;;;;;25.98;5.13;;;4.40;99.90;;;;;;5063483;28;20047;-57
2023/02/04 09:55:56;;;;;;;22.85;4.43;;;4.40;99.90;;;;;;5054935;28;20044;-59
2023/02/04 09:58:23;;;;;;;21.27;4.60;;;4.50;99.90;;;;;;5059747;28;20094;-58
2023/02/04 10:01:00;;;;;;;25.60;4.03;;;4.70;99.90;;;;;;5055844;28;20029;-56
2023/02/04 10:03:26;;;;;;;33.28;5.35;;;4.70;99.90;;;;;;5059993;28;20101;-59
2023/02/04 10:05:52;;;;;;;32.20;4.90;;;4.80;99.90;;;;;;5054277;28;20070;-57
2023/02/04 10:08:28;;;;;;;24.52;4.80;;;4.90;99.90;;;;;;5055793;28;20677;-57
2023/02/04 10:10:54;;;;;;;;;;;4.90;99.90;;;;;;5057707;28;20041;-58
2023/02/04 10:13:29;;;;;;;21.80;4.13;;;4.80;99.90;;;;;;5060892;28;19969;-57
2023/02/04 10:15:55;;;;;;;21.88;4.07;;;4.60;99.90;;;;;;5057100;28;20123;-57
2023/02/04 10:18:27;;;;;;;26.08;4.30;;;4.60;99.90;;;;;;5060602;28;20138;-53
2023/02/04 10:21:23;;;;;;;23.63;4.03;;;4.50;99.90;;;;;;5058632;28;20567;-58
2023/02/04 10:23:57;;;;;;;20.17;3.72;;;4.50;99.90;;;;;;5057862;28;20052;-59
2023/02/04 10:26:27;;;;;;;29.92;4.80;;;4.50;99.90;;;;;;5054909;28;20587;-60
2023/02/04 10:29:05;;;;;;;17.02;3.38;;;4.60;99.90;;;;;;5058740;28;20409;-59
2023/02/04 10:31:39;;;;;;;18.77;3.42;;;4.70;99.90;;;;;;5057841;28;20036;-61
2023/02/04 10:34:19;;;;;;;18.88;3.22;;;4.80;99.90;;;;;;5062610;28;20047;-56
2023/02/04 10:36:47;;;;;;;24.05;3.85;;;4.70;99.90;;;;;;5056699;28;20073;-57
2023/02/04 10:39:19;;;;;;;17.73;4.07;;;4.90;99.90;;;;;;5060473;28;20044;-56
2023/02/04 10:41:52;;;;;;;22.20;3.50;;;4.80;99.90;;;;;;5053962;28;20667;-59
2023/02/04 10:44:25;;;;;;;17.15;3.67;;;5.20;99.90;;;;;;5063528;28;20044;-54
2023/02/04 10:47:07;;;;;;;19.88;3.85;;;5.70;99.90;;;;;;5056454;28;20052;-57
2023/02/04 10:49:33;;;;;;;19.38;3.63;;;5.80;99.90;;;;;;5058437;28;20488;-53
2023/02/04 10:52:01;;;;;;;19.58;3.08;;;5.80;99.90;;;;;;5059794;28;20047;-59
2023/02/04 10:54:37;;;;;;;20.88;3.35;;;6.00;99.90;;;;;;5060099;28;20789;-58
2023/02/04 10:57:02;;;;;;;13.68;3.40;;;6.10;99.90;;;;;;5052582;28;21486;-55
2023/02/04 10:59:28;;;;;;;;;;;6.10;99.90;;;;;;5058626;28;20052;-60
2023/02/04 11:01:59;;;;;;;24.92;4.95;;;6.10;99.90;;;;;;5057053;28;19962;-56
2023/02/04 11:04:25;;;;;;;20.35;3.47;;;6.00;99.90;;;;;;5057522;28;20101;-58
2023/02/04 11:06:52;;;;;;;24.00;4.72;;;5.90;99.90;;;;;;5054625;28;20143;-57
2023/02/04 11:09:18;;;;;;;22.50;3.65;;;5.80;99.90;;;;;;5059132;28;20044;-57
2023/02/04 11:11:48;;;;;;;21.08;3.78;;;5.70;99.90;;;;;;5055316;28;20135;-59
2023/02/04 11:14:29;;;;;;;20.88;3.33;;;5.90;99.90;;;;;;5058710;28;20039;-54
2023/02/04 11:17:00;;;;;;;15.82;3.50;;;6.00;99.90;;;;;;5057960;28;20044;-61
2023/02/04 11:19:37;;;;;;;30.80;3.15;;;6.10;99.90;;;;;;5058895;28;20037;-60
2023/02/04 11:22:23;;;;;;;16.50;2.88;;;6.20;99.90;;;;;;5059862;28;20035;-56
2023/02/04 11:24:49;;;;;;;21.42;4.05;;;6.30;99.90;;;;;;5062150;28;20420;-57
2023/02/04 11:27:22;;;;;;;15.02;2.83;;;6.10;99.90;;;;;;5058152;28;20040;-54
2023/02/04 11:29:47;;;;;;;19.85;3.45;;;6.10;99.90;;;;;;5053835;28;20040;-56
2023/02/04 11:32:43;;;;;;;17.20;2.97;;;5.90;99.90;;;;;;5058048;28;20037;-58
2023/02/04 11:35:11;;;;;;;17.55;2.85;;;5.90;99.90;;;;;;5045855;28;20052;-57
2023/02/04 11:37:40;;;;;;;14.45;2.88;;;5.90;99.90;;;;;;5062381;28;20044;-55
2023/02/04 11:40:26;;;;;;;18.25;2.30;;;5.80;99.90;;;;;;5058228;28;20654;-57
2023/02/04 11:43:00;;;;;;;18.13;3.35;;;5.80;99.90;;;;;;5061929;28;20041;-57
2023/02/04 11:45:34;;;;;;;24.05;3.03;;;5.90;99.90;;;;;;5056075;28;20040;-58
2023/02/04 11:48:03;;;;;;;19.75;4.43;;;6.20;99.90;;;;;;5055405;28;20142;-57
2023/02/04 11:50:33;;;;;;;18.20;3.63;;;6.40;99.90;;;;;;5053215;28;20040;-57
2023/02/04 11:53:01;;;;;;;14.05;2.70;;;6.60;99.90;;;;;;5056991;28;20852;-57
2023/02/04 11:55:28;;;;;;;12.32;2.70;;;6.70;99.90;;;;;;5054753;28;20077;-57
2023/02/04 11:57:55;;;;;;;21.42;3.72;;;6.50;99.90;;;;;;5059209;28;20052;-56
2023/02/04 12:00:28;;;;;;;17.15;3.85;;;6.40;99.90;;;;;;5055682;28;20040;-58
2023/02/04 12:02:59;;;;;;;22.60;3.35;;;6.20;99.90;;;;;;5059919;28;20029;-57
2023/02/04 12:05:39;;;;;;;21.02;3.30;;;6.10;99.90;;;;;;5059484;28;20174;-59
2023/02/04 12:08:21;;;;;;;15.73;3.38;;;6.00;99.90;;;;;;5057872;28;20040;-59
2023/02/04 12:10:58;;;;;;;18.00;4.22;;;6.10;99.90;;;;;;5059701;28;20037;-55
2023/02/04 12:13:24;;;;;;;;;;;6.30;99.90;;;;;;5064262;28;20111;-60
2023/02/04 12:16:05;;;;;;;16.23;3.70;;;6.30;99.90;;;;;;5061122;28;19916;-56
2023/02/04 12:18:32;;;;;;;15.98;2.92;;;6.10;99.90;;;;;;5064022;28;20044;-57
2023/02/04 12:20:59;;;;;;;13.40;3.67;;;5.90;99.90;;;;;;5059618;28;20036;-59
2023/02/04 12:23:26;;;;;;;15.77;3.53;;;5.80;99.90;;;;;;5061508;28;20079;-58
2023/02/04 12:25:52;;;;;;;15.38;3.10;;;5.60;99.90;;;;;;5058728;28;20101;-57
2023/02/04 12:28:17;;;;;;;21.73;2.70;;;5.60;99.90;;;;;;5062020;28;20484;-59
2023/02/04 12:30:43;;;;;;;21.10;3.67;;;5.60;99.90;;;;;;5058668;28;20094;-57
2023/02/04 12:33:09;;;;;;;20.63;3.83;;;5.60;99.90;;;;;;5063313;28;20028;-57
2023/02/04 12:35:34;;;;;;;15.95;3.42;;;5.60;99.90;;;;;;5062305;28;20051;-56
2023/02/04 12:38:01;;;;;;;24.95;4.35;;;5.60;99.90;;;;;;5058466;28;20102;-54
2023/02/04 12:40:27;;;;;;;15.32;3.78;;;5.70;99.90;;;;;;5063769;28;20148;-58
2023/02/04 12:42:52;;;;;;;20.67;4.25;;;5.70;99.90;;;;;;5061996;28;20123;-57
2023/02/04 12:45:18;;;;;;;15.95;2.90;;;5.70;99.90;;;;;;5061888;28;20052;-54
2023/02/04 12:47:44;;;;;;;18.38;3.72;;;5.70;99.90;;;;;;5060530;28;20045;-57